createdAt,value
2022-11-28T00:02:39.612Z,5.62
2022-11-28T00:07:43.037Z,5.57
2022-11-28T00:12:48.811Z,5.58
2022-11-28T00:17:55.204Z,5.58
2022-11-28T00:23:01.061Z,5.53
2022-11-28T00:28:08.212Z,5.46
2022-11-28T00:33:16.980Z,5.44
2022-11-28T00:38:21.651Z,5.51
2022-11-28T00:43:25.382Z,5.44
2022-11-28T00:48:31.284Z,5.43
2022-11-28T00:53:37.256Z,5.41
2022-11-28T00:58:41.025Z,5.37
2022-11-28T01:03:44.436Z,5.38
2022-11-28T01:13:56.179Z,5.32
2022-11-28T01:19:05.988Z,5.31
2022-11-28T01:24:12.956Z,5.29
2022-11-28T01:29:25.504Z,5.3
2022-11-28T01:34:31.909Z,5.3
2022-11-28T01:39:38.857Z,5.27
2022-11-28T01:50:18.154Z,5.33
2022-11-28T02:00:31.111Z,5.28
2022-11-28T02:10:43.150Z,5.18
2022-11-28T02:15:49.359Z,5.23
2022-11-28T02:21:16.107Z,5.21
2022-11-28T02:26:20.142Z,5.23
2022-11-28T02:31:25.893Z,5.17
2022-11-28T02:36:32.838Z,5.16
2022-11-28T02:41:38.999Z,5.17
2022-11-28T02:51:53.311Z,5.07
2022-11-28T02:57:00.243Z,5.01
2022-11-28T03:02:09.879Z,5.01
2022-11-28T03:07:15.272Z,4.93
2022-11-28T03:12:27.094Z,4.91
2022-11-28T03:17:33.233Z,4.91
2022-11-28T03:28:07.058Z,4.89
2022-11-28T03:33:12.175Z,4.88
2022-11-28T03:38:19.491Z,4.88
2022-11-28T03:48:34.598Z,4.86
2022-11-28T03:58:57.578Z,4.83
2022-11-28T04:09:07.947Z,4.75
2022-11-28T04:14:25.478Z,4.72
2022-11-28T04:25:07.283Z,4.75
2022-11-28T04:30:18.533Z,4.75
2022-11-28T04:35:24.419Z,4.73
2022-11-28T04:40:37.178Z,4.76
2022-11-28T04:46:01.397Z,4.84
2022-11-28T04:56:36.930Z,4.96
2022-11-28T05:01:45.204Z,4.99
2022-11-28T05:06:51.180Z,5.07
2022-11-28T05:11:57.214Z,5.1
2022-11-28T05:17:02.855Z,5.13
2022-11-28T05:22:08.254Z,5.17
2022-11-28T05:32:17.700Z,5.14
2022-11-28T05:37:20.853Z,5.16
2022-11-28T05:42:24.717Z,5.22
2022-11-28T05:47:30.058Z,5.23
2022-11-28T05:52:33.537Z,5.17
2022-11-28T05:57:38.464Z,5.11
2022-11-28T06:02:44.303Z,5.1
2022-11-28T06:07:57.826Z,5.09
2022-11-28T06:24:30.471Z,5.06
2022-11-28T06:29:35.667Z,5.04
2022-11-28T06:34:42.992Z,4.98
2022-11-28T06:39:46.442Z,4.9
2022-11-28T06:44:50.506Z,4.86
2022-11-28T06:49:53.642Z,4.82
2022-11-28T06:54:57.421Z,4.75
2022-11-28T07:00:03.317Z,4.73
2022-11-28T07:11:13.241Z,4.72
2022-11-28T07:16:16.416Z,4.72
2022-11-28T07:21:19.569Z,4.74
2022-11-28T07:26:23.095Z,4.79
2022-11-28T07:31:26.675Z,4.82
2022-11-28T07:36:32.523Z,4.8
2022-11-28T07:41:36.159Z,4.82
2022-11-28T07:46:39.458Z,4.89
2022-11-28T07:51:42.846Z,5.03
2022-11-28T08:01:50.871Z,5.09
2022-11-28T08:06:54.177Z,5.1
2022-11-28T08:11:57.564Z,5.19
2022-11-28T08:17:02.847Z,5.24
2022-11-28T08:22:07.158Z,5.34
2022-11-28T08:27:10.623Z,5.3
2022-11-28T08:37:44.741Z,5.4
2022-11-28T08:42:47.907Z,5.45
2022-11-28T08:47:54.016Z,5.69
2022-11-28T08:53:01.658Z,5.83
2022-11-28T08:58:00.589Z,5.77
2022-11-28T09:03:03.752Z,5.83
2022-11-28T09:08:10.333Z,5.82
2022-11-28T09:13:11.098Z,5.95
2022-11-28T09:18:14.644Z,6
2022-11-28T09:23:17.813Z,5.99
2022-11-28T09:28:21.170Z,5.96
2022-11-28T09:33:24.713Z,5.86
2022-11-28T09:38:28.441Z,5.89
2022-11-28T09:49:34.137Z,6.08
2022-11-28T09:54:34.069Z,6.09
2022-11-28T09:59:36.988Z,6.04
2022-11-28T10:04:43.189Z,6.17
2022-11-28T10:09:48.918Z,6.3
2022-11-28T10:14:52.618Z,6.18
2022-11-28T10:20:00.501Z,6.15
2022-11-28T10:25:03.709Z,6.18
2022-11-28T10:30:09.268Z,6.18
2022-11-28T10:35:12.900Z,6.23
2022-11-28T10:40:19.712Z,6.12
2022-11-28T10:45:23.360Z,6.33
2022-11-28T10:50:30.902Z,6.36
2022-11-28T10:55:30.253Z,6.38
2022-11-28T11:00:33.632Z,6.42
2022-11-28T11:05:37.520Z,6.4
2022-11-28T11:10:40.786Z,6.52
2022-11-28T11:15:44.484Z,6.56
2022-11-28T11:20:47.982Z,6.69
2022-11-28T11:25:51.592Z,6.77
2022-11-28T11:30:55.008Z,6.81
2022-11-28T11:35:58.401Z,6.91
2022-11-28T11:41:01.659Z,6.96
2022-11-28T11:46:06.214Z,6.83
2022-11-28T11:51:12.121Z,6.95
2022-11-28T11:56:18.368Z,6.97
2022-11-28T12:01:21.695Z,7
2022-11-28T12:06:24.975Z,7.06
2022-11-28T12:23:03.797Z,6.97
2022-11-28T12:28:07.270Z,7
2022-11-28T12:38:45.152Z,7.36
2022-11-28T12:49:18.409Z,7.22
2022-11-28T12:54:21.538Z,7.16
2022-11-28T12:59:25.739Z,7.22
2022-11-28T13:04:32.875Z,7.18
2022-11-28T13:09:38.697Z,7.18
2022-11-28T13:14:44.613Z,7.21
2022-11-28T13:19:48.587Z,7.17
2022-11-28T13:24:54.010Z,7.21
2022-11-28T13:29:57.472Z,7.08
2022-11-28T13:35:00.795Z,7.08
2022-11-28T13:40:04.121Z,6.92
2022-11-28T13:45:07.374Z,7
2022-11-28T13:50:22.300Z,6.99
2022-11-28T14:00:56.365Z,6.95
2022-11-28T14:06:01.531Z,6.78
2022-11-28T14:11:06.810Z,6.61
2022-11-28T14:16:12.956Z,6.56
2022-11-28T14:21:18.649Z,6.55
2022-11-28T14:26:21.748Z,6.52
2022-11-28T14:37:09.373Z,6.47
2022-11-28T14:42:25.626Z,6.45
2022-11-28T14:47:19.471Z,6.49
2022-11-28T14:52:40.875Z,6.31
2022-11-28T15:03:32.381Z,6.17
2022-11-28T15:08:35.249Z,6.16
2022-11-28T15:13:38.546Z,6.09
2022-11-28T15:18:41.861Z,6.07
2022-11-28T15:23:45.082Z,5.97
2022-11-28T15:28:51.101Z,5.91
2022-11-28T15:33:55.388Z,5.88
2022-11-28T15:38:58.562Z,5.8
2022-11-28T15:44:01.935Z,5.82
2022-11-28T15:49:05.286Z,5.71
2022-11-28T15:54:13.477Z,5.72
2022-11-28T15:59:15.724Z,5.61
2022-11-28T16:04:21.602Z,5.62
2022-11-28T16:09:25.032Z,5.58
2022-11-28T16:14:29.331Z,5.54
2022-11-28T16:19:33.006Z,5.51
2022-11-28T16:24:38.986Z,5.55
2022-11-28T16:29:59.650Z,5.49
2022-11-28T16:35:03.300Z,5.51
2022-11-28T16:45:36.653Z,5.44
2022-11-28T16:50:40.144Z,5.38
2022-11-28T16:55:43.622Z,5.36
2022-11-28T17:00:46.683Z,5.43
2022-11-28T17:05:49.863Z,5.41
2022-11-28T17:16:32.377Z,5.42
2022-11-28T17:27:05.377Z,5.24
2022-11-28T17:32:12.219Z,5.25
2022-11-28T17:37:15.489Z,5.25
2022-11-28T17:42:18.971Z,5.21
2022-11-28T17:47:24.603Z,5.19
2022-11-28T17:52:28.184Z,5.11
2022-11-28T17:57:31.595Z,5.15
2022-11-28T18:02:35.519Z,5.14
2022-11-28T18:07:45.804Z,5.1
2022-11-28T18:12:49.596Z,5.15
2022-11-28T18:28:56.445Z,5.11
2022-11-28T18:34:02.972Z,5.11
2022-11-28T18:39:11.243Z,5.09
2022-11-28T18:49:47.799Z,5.09
2022-11-28T18:54:56.094Z,5.1
2022-11-28T19:00:03.688Z,5.13
2022-11-28T19:16:12.976Z,5.08
2022-11-28T19:26:48.926Z,5.17
2022-11-28T19:31:56.724Z,5.12
2022-11-28T19:37:02.918Z,5.18
2022-11-28T19:42:10.044Z,5.22
2022-11-28T19:47:13.207Z,5.17
2022-11-28T19:58:23.508Z,5.18
2022-11-28T20:09:04.213Z,5.23
2022-11-28T20:14:15.558Z,5.21
2022-11-28T20:19:33.776Z,5.23
2022-11-28T20:24:47.173Z,5.33
2022-11-28T20:35:25.836Z,5.29
2022-11-28T20:40:33.431Z,5.29
2022-11-28T20:45:41.299Z,5.23
2022-11-28T20:50:51.120Z,5.21
2022-11-28T20:55:58.858Z,5.24
2022-11-28T21:01:04.829Z,5.27
2022-11-28T21:06:13.939Z,5.23
2022-11-28T21:11:43.741Z,5.21
2022-11-28T21:16:26.015Z,5.14
2022-11-28T21:27:02.893Z,5.23
2022-11-28T21:32:07.568Z,5.16
2022-11-28T21:37:13.428Z,5.2
2022-11-28T21:53:20.977Z,5.29
2022-11-28T22:03:59.115Z,5.18
2022-11-28T22:08:58.313Z,5.1
2022-11-28T22:14:04.443Z,5.14
2022-11-28T22:19:10.412Z,5.1
2022-11-28T22:24:14.745Z,5.11
2022-11-28T22:29:20.438Z,5.09
2022-11-28T22:34:29.503Z,5.12
2022-11-28T22:39:36.545Z,5.08
2022-11-28T22:50:12.702Z,5.07
2022-11-28T22:55:18.872Z,5.09
2022-11-28T23:00:22.882Z,5.08
2022-11-28T23:05:26.116Z,5.03
2022-11-28T23:10:31.312Z,4.98
2022-11-28T23:15:44.389Z,4.96
2022-11-28T23:20:43.748Z,4.93
2022-11-28T23:31:53.158Z,5.03
2022-11-28T23:37:00.880Z,4.92
2022-11-28T23:42:08.907Z,4.93
2022-11-28T23:47:16.226Z,4.89
2022-11-28T23:52:20.061Z,4.86
2022-11-28T23:57:26.230Z,4.88
